This is the latest recevied weather packets stored in our database for station/object HB9TVK-13. If no packets are shown the sender has not sent any weather packets the latest 10 day(s).
| Time | Temp. | Humidity | Pressure | Rain* | Wind** | Luminosity | Snow |
|---|---|---|---|---|---|---|---|
| 1777776436 | 12.78° C | 76% | 1017.8 hPa | 0 mm | - | - | - |
| 1777775836 | 12.78° C | 74% | 1018 hPa | 0 mm | - | - | - |
| 1777775237 | 13.33° C | 73% | 1018 hPa | 0 mm | - | - | - |
| 1777774637 | 13.33° C | 74% | 1018.1 hPa | 0 mm | - | - | - |
| 1777774037 | 13.33° C | 73% | 1018.1 hPa | 0 mm | - | - | - |
| 1777773437 | 13.33° C | 74% | 1018.2 hPa | 0 mm | - | - | - |
| 1777772836 | 12.78° C | 76% | 1018.2 hPa | 0 mm | - | - | - |
| 1777772236 | 12.78° C | 75% | 1018.2 hPa | 0 mm | - | - | - |
| 1777771636 | 13.89° C | 72% | 1018.2 hPa | 0 mm | - | - | - |
| 1777771036 | 13.89° C | 72% | 1018.2 hPa | 0 mm | - | - | - |
| 1777770437 | 14.44° C | 72% | 1018.4 hPa | 0 mm | - | - | - |
| 1777769838 | 13.89° C | 72% | 1018.4 hPa | 0 mm | - | - | - |
| 1777769238 | 13.89° C | 71% | 1018.5 hPa | 0 mm | - | - | - |
| 1777768635 | 13.89° C | 72% | 1018.6 hPa | 0 mm | - | - | - |
| 1777768036 | 14.44° C | 69% | 1018.7 hPa | 0 mm | - | - | - |
| 1777767436 | 15° C | 64% | 1018.7 hPa | 0 mm | - | - | - |
| 1777766836 | 15.56° C | 61% | 1018.7 hPa | 0 mm | - | - | - |
| 1777766237 | 15° C | 63% | 1018.7 hPa | 0 mm | - | - | - |
| 1777765637 | 15° C | 63% | 1018.8 hPa | 0 mm | - | - | - |
| 1777765038 | 15.56° C | 62% | 1018.7 hPa | 0 mm | - | - | - |
| 1777764435 | 16.11° C | 62% | 1018.7 hPa | 0 mm | - | - | - |
| 1777763835 | 16.11° C | 62% | 1018.7 hPa | 0 mm | - | - | - |
| 1777763236 | 16.11° C | 62% | 1018.8 hPa | 0 mm | - | - | - |
| 1777762636 | 16.67° C | 62% | 1018.8 hPa | 0 mm | - | - | - |
| 1777762037 | 16.67° C | 63% | 1018.9 hPa | 0 mm | - | - | - |
* Rain latest hour (hover to see other rain measurements)
** Current wind speed in m/s (hover to see current wind gust speed)